createdAt,value
2019-03-02T00:00:22.636Z,99530.06
2019-03-02T00:02:56.785Z,99532.98
2019-03-02T00:05:25.801Z,99528.81
2019-03-02T00:07:58.821Z,99522.48
2019-03-02T00:10:28.987Z,99524.80
2019-03-02T00:13:03.877Z,99524.17
2019-03-02T00:15:35.845Z,99526.15
2019-03-02T00:18:05.864Z,99528.08
2019-03-02T00:20:36.148Z,99523.75
2019-03-02T00:23:06.489Z,99528.16
2019-03-02T00:25:36.622Z,99527.45
2019-03-02T00:28:06.690Z,99530.94
2019-03-02T00:30:36.623Z,99531.26
2019-03-02T00:33:06.744Z,99527.66
2019-03-02T00:35:39.793Z,99533.41
2019-03-02T00:38:09.101Z,99528.91
2019-03-02T00:40:40.758Z,99530.21
2019-03-02T00:43:12.178Z,99529.14
2019-03-02T00:45:45.959Z,99533.66
2019-03-02T00:48:14.348Z,99531.31
2019-03-02T00:50:44.237Z,99531.42
2019-03-02T00:53:18.712Z,99531.31
2019-03-02T00:55:48.576Z,99530.12
2019-03-02T00:58:18.451Z,99525.84
2019-03-02T01:00:49.942Z,99527.70
2019-03-02T01:03:20.124Z,99524.52
2019-03-02T01:05:50.124Z,99530.73
2019-03-02T01:08:20.506Z,99524.64
2019-03-02T01:10:51.300Z,99518.03
2019-03-02T01:13:23.109Z,99518.58
2019-03-02T01:15:53.519Z,99511.84
2019-03-02T01:18:23.499Z,99508.14
2019-03-02T01:20:53.506Z,99499.83
2019-03-02T01:23:23.849Z,99498.13
2019-03-02T01:25:55.210Z,99503.48
2019-03-02T01:28:25.569Z,99500.30
2019-03-02T01:30:56.037Z,99501.20
2019-03-02T01:33:28.632Z,99493.02
2019-03-02T01:35:58.171Z,99486.27
2019-03-02T01:38:28.267Z,99483.16
2019-03-02T01:41:02.392Z,99483.66
2019-03-02T01:43:32.278Z,99488.42
2019-03-02T01:46:04.605Z,99488.06
2019-03-02T01:48:34.700Z,99489.41
2019-03-02T01:51:04.688Z,99450.03
2019-03-02T01:53:35.613Z,99483.08
2019-03-02T01:56:06.077Z,99480.77
2019-03-02T01:58:37.234Z,99482.48
2019-03-02T02:01:07.506Z,99481.72
2019-03-02T02:03:38.618Z,99485.05
2019-03-02T02:06:09.187Z,99490.90
2019-03-02T02:08:39.079Z,99490.05
2019-03-02T02:11:09.620Z,99492.16
2019-03-02T02:13:42.893Z,99480.50
2019-03-02T02:16:12.677Z,99476.86
2019-03-02T02:18:42.915Z,99485.17
2019-03-02T02:21:13.025Z,99478.34
2019-03-02T02:23:45.834Z,99474.66
2019-03-02T02:26:15.088Z,99473.91
2019-03-02T02:28:44.971Z,99471.70
2019-03-02T02:31:17.606Z,99469.98
2019-03-02T02:33:47.553Z,99468.45
2019-03-02T02:36:20.277Z,99463.92
2019-03-02T02:38:54.514Z,99465.67
2019-03-02T02:41:23.178Z,99470.59
2019-03-02T02:43:54.300Z,99479.54
2019-03-02T02:46:27.527Z,99473.91
2019-03-02T02:48:57.162Z,99476.15
2019-03-02T02:51:27.130Z,99474.11
2019-03-02T02:53:57.105Z,99472.75
2019-03-02T02:56:28.122Z,99475.44
2019-03-02T02:59:01.683Z,99469.20
2019-03-02T03:01:33.602Z,99470.90
2019-03-02T03:04:03.216Z,99474.98
2019-03-02T03:06:34.546Z,99483.37
2019-03-02T03:09:09.807Z,99478.52
2019-03-02T03:11:43.600Z,99471.83
2019-03-02T03:14:14.916Z,99467.66
2019-03-02T03:16:42.825Z,99466.42
2019-03-02T03:19:12.736Z,99468.09
2019-03-02T03:21:42.601Z,99466.22
2019-03-02T03:24:12.842Z,99470.31
2019-03-02T03:26:42.743Z,99467.70
2019-03-02T03:29:12.705Z,99464.00
2019-03-02T03:31:42.580Z,99459.96
2019-03-02T03:34:12.631Z,99450.84
2019-03-02T03:36:42.873Z,99450.11
2019-03-02T03:39:13.041Z,99452.27
2019-03-02T03:41:44.741Z,99451.77
2019-03-02T03:44:17.592Z,99451.72
2019-03-02T03:46:47.073Z,99451.11
2019-03-02T03:49:17.066Z,99447.70
2019-03-02T03:51:47.105Z,99443.16
2019-03-02T03:54:17.314Z,99442.80
2019-03-02T03:56:47.131Z,99457.23
2019-03-02T03:59:19.064Z,99453.72
2019-03-02T04:01:52.095Z,99449.32
2019-03-02T04:04:24.786Z,99451.43
2019-03-02T04:06:52.128Z,99445.91
2019-03-02T04:09:22.871Z,99446.40
2019-03-02T04:11:53.034Z,99446.50
2019-03-02T04:14:24.672Z,99446.40
2019-03-02T04:16:55.657Z,99440.86
2019-03-02T04:19:33.972Z,99444.41
2019-03-02T04:22:06.429Z,99441.09
2019-03-02T04:24:39.844Z,99444.72
2019-03-02T04:27:11.055Z,99441.34
2019-03-02T04:29:48.871Z,99439.55
2019-03-02T04:32:14.395Z,99437.67
2019-03-02T04:34:44.398Z,99441.36
2019-03-02T04:37:14.279Z,99358.31
2019-03-02T04:39:46.460Z,99441.59
2019-03-02T04:42:16.596Z,99436.56
2019-03-02T04:44:46.704Z,99437.94
2019-03-02T04:47:17.312Z,99440.05
2019-03-02T04:49:51.080Z,99446.30
2019-03-02T04:52:18.992Z,99450.34
2019-03-02T04:54:48.971Z,99441.53
2019-03-02T04:57:21.710Z,99442.89
2019-03-02T04:59:53.683Z,99433.02
2019-03-02T05:02:23.494Z,99435.17
2019-03-02T05:04:53.963Z,99443.75
2019-03-02T05:07:26.741Z,99440.59
2019-03-02T05:09:55.818Z,99446.44
2019-03-02T05:12:27.122Z,99447.97
2019-03-02T05:14:57.125Z,99442.34
2019-03-02T05:17:27.019Z,99434.84
2019-03-02T05:19:56.938Z,99435.02
2019-03-02T05:22:27.245Z,99438.06
2019-03-02T05:24:57.124Z,99442.70
2019-03-02T05:27:28.825Z,99432.98
2019-03-02T05:30:02.602Z,99430.25
2019-03-02T05:32:32.806Z,99438.69
2019-03-02T05:35:06.115Z,99431.02
2019-03-02T05:37:39.266Z,99428.48
2019-03-02T05:40:08.273Z,99425.68
2019-03-02T05:42:38.294Z,99423.45
2019-03-02T05:45:08.551Z,99431.83
2019-03-02T05:47:38.874Z,99432.92
2019-03-02T05:50:09.155Z,99433.39
2019-03-02T05:52:39.019Z,99436.98
2019-03-02T05:55:09.871Z,99441.05
2019-03-02T05:57:40.687Z,99441.25
2019-03-02T06:00:12.865Z,99440.26
2019-03-02T06:02:43.157Z,99447.01
2019-03-02T06:05:13.654Z,99448.12
2019-03-02T06:07:43.582Z,99446.58
2019-03-02T06:10:13.965Z,99453.03
2019-03-02T06:12:44.167Z,99455.77
2019-03-02T06:15:14.790Z,99456.19
2019-03-02T06:17:45.213Z,99460.41
2019-03-02T06:20:16.465Z,99465.55
2019-03-02T06:22:46.946Z,99463.33
2019-03-02T06:25:20.882Z,99470.90
2019-03-02T06:27:49.040Z,99460.30
2019-03-02T06:30:19.977Z,99458.42
2019-03-02T06:32:54.173Z,99389.66
2019-03-02T06:35:24.554Z,99450.55
2019-03-02T06:37:57.962Z,99452.97
2019-03-02T06:40:28.005Z,99453.64
2019-03-02T06:42:58.193Z,99449.94
2019-03-02T06:45:28.508Z,99448.25
2019-03-02T06:47:58.424Z,99447.77
2019-03-02T06:50:31.809Z,99445.16
2019-03-02T06:53:01.483Z,99441.74
2019-03-02T06:55:31.995Z,99444.34
2019-03-02T06:58:03.017Z,99441.12
2019-03-02T07:00:32.836Z,99445.70
2019-03-02T07:03:06.763Z,99442.76
2019-03-02T07:05:37.205Z,99442.25
2019-03-02T07:08:07.379Z,99441.78
2019-03-02T07:10:37.459Z,99441.94
2019-03-02T07:13:08.584Z,99435.29
2019-03-02T07:15:40.494Z,99438.51
2019-03-02T07:18:16.773Z,99436.53
2019-03-02T07:20:46.659Z,99434.91
2019-03-02T07:23:17.225Z,99436.39
2019-03-02T07:25:47.390Z,99433.98
2019-03-02T07:28:17.515Z,99435.83
2019-03-02T07:30:47.632Z,99431.53
2019-03-02T07:33:17.986Z,99436.30
2019-03-02T07:35:48.045Z,99438.61
2019-03-02T07:38:20.379Z,99432.94
2019-03-02T07:40:52.763Z,99358.28
2019-03-02T07:43:24.082Z,99424.39
2019-03-02T07:45:57.638Z,99424.27
2019-03-02T07:48:29.168Z,99426.60
2019-03-02T07:51:00.991Z,99428.58
2019-03-02T07:53:31.749Z,99424.72
2019-03-02T07:56:02.401Z,99436.63
2019-03-02T07:58:32.938Z,99443.41
2019-03-02T08:01:02.054Z,99439.77
2019-03-02T08:03:34.389Z,99435.90
2019-03-02T08:06:04.746Z,99434.59
2019-03-02T08:08:34.847Z,99434.20
2019-03-02T08:11:06.654Z,99435.01
2019-03-02T08:13:37.756Z,99434.66
2019-03-02T08:16:09.932Z,99430.23
2019-03-02T08:18:40.141Z,99426.86
2019-03-02T08:21:10.762Z,99429.75
2019-03-02T08:23:41.044Z,99440.81
2019-03-02T08:26:11.168Z,99429.05
2019-03-02T08:28:42.111Z,99430.77
2019-03-02T08:31:13.378Z,99429.35
2019-03-02T08:33:46.164Z,99428.54
2019-03-02T08:36:18.193Z,99422.89
2019-03-02T08:38:48.220Z,99422.89
2019-03-02T08:41:18.271Z,99419.89
2019-03-02T08:43:48.624Z,99419.89
2019-03-02T08:46:20.246Z,99413.30
2019-03-02T08:48:50.710Z,99429.61
2019-03-02T08:51:20.830Z,99418.36
2019-03-02T08:53:51.684Z,99409.41
2019-03-02T08:56:22.234Z,99409.41
2019-03-02T08:58:57.991Z,99415.95
2019-03-02T09:01:27.793Z,99410.92
2019-03-02T09:03:59.951Z,99412.94
2019-03-02T09:06:34.775Z,99418.78
2019-03-02T09:09:06.906Z,99427.58
2019-03-02T09:11:40.860Z,99427.58
2019-03-02T09:14:13.558Z,99417.71
2019-03-02T09:16:47.111Z,99411.79
2019-03-02T09:19:20.896Z,99414.84
2019-03-02T09:21:55.924Z,99418.93
2019-03-02T09:24:28.044Z,99414.00
2019-03-02T09:27:01.276Z,99414.47
2019-03-02T09:29:32.936Z,99417.58
2019-03-02T09:32:04.258Z,99419.15
2019-03-02T09:34:37.060Z,99344.70
2019-03-02T09:37:08.039Z,99408.56
2019-03-02T09:39:38.563Z,99411.86
2019-03-02T09:42:09.663Z,99403.88
2019-03-02T09:44:40.962Z,99405.77
2019-03-02T09:47:12.765Z,99404.69
2019-03-02T09:49:44.553Z,99415.59
2019-03-02T09:52:15.114Z,99422.90
2019-03-02T09:54:44.240Z,99412.25
2019-03-02T09:57:15.029Z,99416.02
2019-03-02T09:59:46.503Z,99420.16
2019-03-02T10:02:21.311Z,99419.47
2019-03-02T10:04:54.115Z,99419.55
2019-03-02T10:07:27.281Z,99417.66
2019-03-02T10:09:58.987Z,99419.53
2019-03-02T10:12:29.657Z,99413.74
2019-03-02T10:15:02.305Z,99418.67
2019-03-02T10:17:38.444Z,99417.27
2019-03-02T10:20:10.709Z,99410.75
2019-03-02T10:22:43.711Z,99412.04
2019-03-02T10:25:19.881Z,99336.70
2019-03-02T10:27:50.155Z,99401.50
2019-03-02T10:30:21.942Z,99412.97
2019-03-02T10:32:55.745Z,99413.36
2019-03-02T10:35:25.432Z,99412.33
2019-03-02T10:37:56.460Z,99412.31
2019-03-02T10:40:28.330Z,99329.60
2019-03-02T10:43:00.204Z,99410.94
2019-03-02T10:45:33.762Z,99407.36
2019-03-02T10:48:04.341Z,99404.95
2019-03-02T10:50:34.782Z,99409.99
2019-03-02T10:53:07.498Z,99397.46
2019-03-02T10:55:38.034Z,99393.53
2019-03-02T10:58:10.310Z,99382.76
2019-03-02T11:00:41.675Z,99387.62
2019-03-02T11:03:13.879Z,99397.53
2019-03-02T11:06:04.417Z,99390.35
2019-03-02T11:08:57.662Z,99386.34
2019-03-02T11:11:43.711Z,99387.23
2019-03-02T11:14:23.937Z,99378.36
2019-03-02T11:17:12.038Z,99381.89
2019-03-02T11:20:08.021Z,99377.78
2019-03-02T11:23:05.456Z,99299.16
2019-03-02T11:25:47.529Z,99372.98
2019-03-02T11:28:32.555Z,99371.13
2019-03-02T11:31:10.772Z,99360.92
2019-03-02T11:34:12.491Z,99365.89
2019-03-02T11:37:00.498Z,99359.64
2019-03-02T11:39:50.003Z,99360.74
2019-03-02T11:42:31.305Z,99357.59
2019-03-02T11:45:07.212Z,99356.84
2019-03-02T11:47:48.086Z,99354.03
2019-03-02T11:50:46.964Z,99356.33
2019-03-02T11:53:24.085Z,99353.06
2019-03-02T11:56:27.940Z,99343.64
2019-03-02T11:59:20.509Z,99345.06
2019-03-02T12:02:19.728Z,99338.75
2019-03-02T12:05:06.219Z,99338.47
2019-03-02T12:07:56.332Z,99334.09
2019-03-02T12:10:38.507Z,99333.39
2019-03-02T12:13:36.866Z,99335.75
2019-03-02T12:16:33.274Z,99334.97
2019-03-02T12:19:30.540Z,99334.64
2019-03-02T12:22:35.652Z,99326.72
2019-03-02T12:25:35.199Z,99327.42
2019-03-02T12:28:23.616Z,99325.73
2019-03-02T12:31:13.371Z,99319.67
2019-03-02T12:34:03.332Z,99314.20
2019-03-02T12:36:49.088Z,99310.43
2019-03-02T12:39:37.496Z,99314.20
2019-03-02T12:42:31.557Z,99315.02
2019-03-02T12:45:21.750Z,99310.17
2019-03-02T12:48:21.286Z,99299.53
2019-03-02T12:51:02.743Z,99303.22
2019-03-02T12:54:07.659Z,99247.72
2019-03-02T12:57:08.701Z,99288.75
2019-03-02T13:00:03.341Z,99284.48
2019-03-02T13:03:06.041Z,99276.27
2019-03-02T13:06:06.263Z,99271.45
2019-03-02T13:08:59.166Z,99274.73
2019-03-02T13:11:57.139Z,99266.48
2019-03-02T13:14:44.710Z,99267.36
2019-03-02T13:17:38.548Z,99261.88
2019-03-02T13:20:29.472Z,99264.80
2019-03-02T13:23:06.717Z,99259.32
2019-03-02T13:25:58.742Z,99264.29
2019-03-02T13:28:37.055Z,99253.95
2019-03-02T13:31:31.424Z,99254.32
2019-03-02T13:34:20.096Z,99244.93
2019-03-02T13:37:20.433Z,99236.56
2019-03-02T13:40:17.185Z,99237.94
2019-03-02T13:42:56.791Z,99241.21
2019-03-02T13:45:46.081Z,99238.16
2019-03-02T13:48:35.699Z,99238.74
2019-03-02T13:51:30.174Z,99240.13
2019-03-02T13:56:51.851Z,99247.53
2019-03-02T13:59:30.995Z,99244.13
2019-03-02T14:02:19.022Z,99236.73
2019-03-02T14:05:20.469Z,99243.80
2019-03-02T14:08:28.296Z,99237.70
2019-03-02T14:11:19.281Z,99234.42
2019-03-02T14:14:03.681Z,99233.52
2019-03-02T14:17:01.867Z,99230.82
2019-03-02T14:19:42.063Z,99220.52
2019-03-02T14:22:26.987Z,99222.50
2019-03-02T14:25:34.386Z,99228.41
2019-03-02T14:28:13.356Z,99225.02
2019-03-02T14:33:54.831Z,99226.32
2019-03-02T14:36:44.520Z,99215.40
2019-03-02T14:39:30.227Z,99218.32
2019-03-02T14:42:28.238Z,99218.50
2019-03-02T14:45:16.740Z,99224.30
2019-03-02T14:48:13.657Z,99222.09
2019-03-02T14:51:03.195Z,99224.97
2019-03-02T14:53:51.867Z,99225.78
2019-03-02T14:56:54.730Z,99229.45
2019-03-02T14:59:55.263Z,99233.73
2019-03-02T15:02:49.083Z,99240.19
2019-03-02T15:05:37.818Z,99232.84
2019-03-02T15:08:25.692Z,99236.20
2019-03-02T15:11:15.130Z,99221.41
2019-03-02T15:14:11.455Z,99216.53
2019-03-02T15:16:53.938Z,99228.02
2019-03-02T15:19:56.175Z,99227.31
2019-03-02T15:22:47.773Z,99151.00
2019-03-02T15:25:34.366Z,99223.15
2019-03-02T15:28:29.244Z,99215.28
2019-03-02T15:31:35.078Z,99148.29
2019-03-02T15:34:21.962Z,99219.82
2019-03-02T15:37:07.803Z,99218.51
2019-03-02T15:40:05.138Z,99217.55
2019-03-02T15:42:58.653Z,99215.52
2019-03-02T15:45:38.266Z,99212.59
2019-03-02T15:48:30.838Z,99207.48
2019-03-02T15:51:39.719Z,99204.44
2019-03-02T15:54:33.018Z,99205.54
2019-03-02T15:57:21.568Z,99199.70
2019-03-02T16:00:18.180Z,99197.52
2019-03-02T16:02:59.051Z,99192.13
2019-03-02T16:05:52.690Z,99202.19
2019-03-02T16:08:48.890Z,99201.54
2019-03-02T16:11:35.652Z,99197.89
2019-03-02T16:14:20.806Z,99205.09
2019-03-02T16:17:04.695Z,99198.91
2019-03-02T16:19:41.406Z,99199.72
2019-03-02T16:22:30.099Z,99197.66
2019-03-02T16:25:09.540Z,99189.50
2019-03-02T16:27:58.829Z,99198.39
2019-03-02T16:30:39.235Z,99196.58
2019-03-02T16:33:32.463Z,99198.52
2019-03-02T16:36:18.731Z,99190.20
2019-03-02T16:39:02.908Z,99182.41
2019-03-02T16:41:56.775Z,99186.95
2019-03-02T16:44:39.315Z,99192.75
2019-03-02T16:47:31.063Z,99191.48
2019-03-02T16:50:27.989Z,99192.67
2019-03-02T16:53:16.052Z,99183.33
2019-03-02T16:56:17.253Z,99185.85
2019-03-02T16:59:38.171Z,99191.39
2019-03-02T17:02:34.587Z,99193.30
2019-03-02T17:09:18.089Z,99184.70
2019-03-02T17:12:01.395Z,99188.52
2019-03-02T17:14:57.317Z,99185.05
2019-03-02T17:17:56.072Z,99188.38
2019-03-02T17:20:39.127Z,99187.06
2019-03-02T17:23:42.627Z,99185.45
2019-03-02T17:26:37.030Z,99200.22
2019-03-02T17:29:24.610Z,99194.71
2019-03-02T17:32:17.861Z,99192.71
2019-03-02T17:35:07.601Z,99193.16
2019-03-02T17:38:02.633Z,99194.92
2019-03-02T17:41:07.478Z,99205.05
2019-03-02T17:43:57.225Z,99205.45
2019-03-02T17:46:47.061Z,99196.94
2019-03-02T17:49:28.794Z,99203.33
2019-03-02T17:52:23.274Z,99205.63
2019-03-02T17:55:04.999Z,99202.59
2019-03-02T17:57:50.301Z,99205.85
2019-03-02T18:00:48.916Z,99210.53
2019-03-02T18:03:56.000Z,99211.30
2019-03-02T18:06:42.711Z,99205.50
2019-03-02T18:09:41.634Z,99214.05
2019-03-02T18:12:30.424Z,99134.06
2019-03-02T18:15:36.510Z,99214.84
2019-03-02T18:18:17.493Z,99212.89
2019-03-02T18:21:23.540Z,99212.89
2019-03-02T18:25:17.596Z,99219.02
2019-03-02T18:31:25.989Z,99142.55
2019-03-02T18:34:11.928Z,99217.52
2019-03-02T18:36:45.946Z,99210.28
2019-03-02T18:39:46.319Z,99210.15
2019-03-02T18:46:30.456Z,99218.14
2019-03-02T18:49:15.347Z,99218.14
2019-03-02T18:52:13.091Z,99226.19
2019-03-02T18:54:45.136Z,99218.14
2019-03-02T18:57:15.940Z,99227.47
2019-03-02T18:59:47.557Z,99218.31
2019-03-02T19:02:18.275Z,99224.81
2019-03-02T19:04:49.868Z,99224.62
2019-03-02T19:07:20.845Z,99219.52
2019-03-02T19:09:51.650Z,99221.33
2019-03-02T19:12:22.104Z,99215.09
2019-03-02T19:14:53.784Z,99206.77
2019-03-02T19:17:25.392Z,99204.48
2019-03-02T19:19:55.593Z,99194.83
2019-03-02T19:22:25.994Z,99196.34
2019-03-02T19:24:56.175Z,99196.30
2019-03-02T19:27:26.561Z,99197.91
2019-03-02T19:29:56.884Z,99190.61
2019-03-02T19:32:27.192Z,99185.40
2019-03-02T19:34:59.449Z,99190.42
2019-03-02T19:37:29.844Z,99172.52
2019-03-02T19:40:00.352Z,99171.09
2019-03-02T19:42:32.160Z,99168.63
2019-03-02T19:45:10.288Z,99167.72
2019-03-02T19:47:45.702Z,99154.19
2019-03-02T19:50:18.708Z,99149.70
2019-03-02T19:52:49.774Z,99146.06
2019-03-02T19:55:20.333Z,99145.27
2019-03-02T19:57:50.620Z,99133.59
2019-03-02T20:00:26.629Z,99129.16
2019-03-02T20:02:57.254Z,99120.56
2019-03-02T20:05:28.613Z,99119.03
2019-03-02T20:07:59.260Z,99122.61
2019-03-02T20:10:30.054Z,99121.30
2019-03-02T20:13:00.210Z,99128.54
2019-03-02T20:15:31.102Z,99127.89
2019-03-02T20:18:01.478Z,99118.44
2019-03-02T20:20:49.187Z,99121.56
2019-03-02T20:23:20.051Z,99122.96
2019-03-02T20:25:51.004Z,99123.77
2019-03-02T20:28:20.942Z,99112.36
2019-03-02T20:30:51.490Z,99102.78
2019-03-02T20:33:29.571Z,99095.53
2019-03-02T20:35:59.570Z,99102.28
2019-03-02T20:38:31.345Z,99109.07
2019-03-02T20:41:03.190Z,99104.78
2019-03-02T20:43:34.590Z,99103.13
2019-03-02T20:46:06.696Z,99115.05
2019-03-02T20:48:36.693Z,99111.80
2019-03-02T20:51:07.035Z,99114.78
2019-03-02T20:53:37.660Z,99108.08
2019-03-02T20:56:08.028Z,99084.34
2019-03-02T20:58:39.359Z,99107.22
2019-03-02T21:01:10.323Z,99103.28
2019-03-02T21:03:40.716Z,99103.43
2019-03-02T21:06:11.105Z,99100.98
2019-03-02T21:12:12.939Z,99089.21
2019-03-02T21:14:42.881Z,99083.48
2019-03-02T21:17:13.183Z,99084.41
2019-03-02T21:19:43.923Z,99079.17
2019-03-02T21:22:17.751Z,99079.45
2019-03-02T21:24:48.433Z,99071.06
2019-03-02T21:27:19.071Z,99052.97
2019-03-02T21:29:49.991Z,99069.40
2019-03-02T21:32:21.056Z,99069.03
2019-03-02T21:34:51.556Z,99057.38
2019-03-02T21:37:21.754Z,99058.44
2019-03-02T21:39:54.118Z,99056.11
2019-03-02T21:42:24.339Z,99057.84
2019-03-02T21:46:01.954Z,99061.22
2019-03-02T21:52:24.190Z,99064.98
2019-03-02T21:54:57.954Z,98953.30
2019-03-02T21:57:28.518Z,99060.09
2019-03-02T21:59:58.578Z,99059.95
2019-03-02T22:05:42.945Z,99051.54
2019-03-02T22:08:24.467Z,99047.77
2019-03-02T22:11:32.776Z,99057.80
2019-03-02T22:14:17.440Z,99053.61
2019-03-02T22:20:59.094Z,99025.03
2019-03-02T22:26:47.027Z,99051.97
2019-03-02T22:32:28.594Z,98983.73
2019-03-02T22:34:59.345Z,99050.39
2019-03-02T22:44:44.819Z,99037.33
2019-03-02T22:47:22.114Z,99035.52
2019-03-02T22:50:28.762Z,99020.00
2019-03-02T22:53:11.621Z,99020.50
2019-03-02T22:56:25.258Z,99015.59
2019-03-02T22:59:16.194Z,99010.48
2019-03-02T23:02:26.024Z,99004.36
2019-03-02T23:05:29.100Z,98943.67
2019-03-02T23:08:00.507Z,99013.36
2019-03-02T23:10:31.193Z,99025.53
2019-03-02T23:13:02.620Z,99022.41
2019-03-02T23:15:33.011Z,99022.71
2019-03-02T23:18:04.965Z,99023.68
2019-03-02T23:20:35.161Z,99027.02
2019-03-02T23:23:05.774Z,99021.77
2019-03-02T23:25:36.162Z,99027.35
2019-03-02T23:28:06.757Z,99018.84
2019-03-02T23:30:37.587Z,99025.23
2019-03-02T23:33:08.071Z,99030.80
2019-03-02T23:35:40.555Z,99034.48
2019-03-02T23:38:11.018Z,99024.47
2019-03-02T23:40:41.700Z,99031.22
2019-03-02T23:43:12.578Z,99039.02
2019-03-02T23:45:43.599Z,99036.84
2019-03-02T23:48:14.003Z,99040.88
2019-03-02T23:50:44.768Z,99032.41
2019-03-02T23:53:15.196Z,99036.77
2019-03-02T23:55:45.751Z,99032.05
2019-03-02T23:58:17.958Z,99026.30
